Time;durP1;ratioP1;P1;durP2;ratioP2;P2;SDS_P1;SDS_P2;PMS_P1;PMS_P2;Temp;Humidity;BMP_temperature;BMP_pressure;BME280_temperature;BME280_humidity;BME280_pressure;Samples;Min_cycle;Max_cycle;Signal;HPM_P1;HPM_P2
2023/08/19 00:01:05;;;;;;;20.70;16.48;;;20.90;99.90;;;;;;5080351;28;20079;-69
2023/08/19 00:03:31;;;;;;;21.10;16.77;;;20.80;99.90;;;;;;5076045;28;20048;-68
2023/08/19 00:06:09;;;;;;;20.70;16.85;;;20.80;99.90;;;;;;5079338;28;20048;-67
2023/08/19 00:08:35;;;;;;;21.00;17.08;;;20.80;99.90;;;;;;5078333;28;20067;-68
2023/08/19 00:11:02;;;;;;;21.73;15.95;;;20.80;99.90;;;;;;5076406;28;20112;-68
2023/08/19 00:13:28;;;;;;;20.42;17.50;;;20.80;99.90;;;;;;5078694;28;20053;-67
2023/08/19 00:15:54;;;;;;;20.98;16.88;;;20.80;99.90;;;;;;5076127;28;20094;-67
2023/08/19 00:18:23;;;;;;;20.70;17.70;;;20.80;99.90;;;;;;5078472;28;20040;-68
2023/08/19 00:20:50;;;;;;;22.42;17.92;;;20.80;99.90;;;;;;5076285;28;20066;-68
2023/08/19 00:23:17;;;;;;;20.73;17.27;;;20.90;99.90;;;;;;5077907;28;20048;-67
2023/08/19 00:25:43;;;;;;;21.83;18.20;;;20.80;99.90;;;;;;5079463;28;20041;-67
2023/08/19 00:28:09;;;;;;;22.77;17.67;;;20.90;99.90;;;;;;5059902;28;20055;-68
2023/08/19 00:30:35;;;;;;;24.23;18.73;;;20.90;99.90;;;;;;5078450;28;20084;-67
2023/08/19 00:33:01;;;;;;;23.08;18.48;;;20.90;99.90;;;;;;5059428;28;20113;-68
2023/08/19 00:35:26;;;;;;;29.30;18.52;;;20.90;99.90;;;;;;5079645;28;20099;-68
2023/08/19 00:37:52;;;;;;;21.80;18.15;;;20.90;99.90;;;;;;5077779;28;20040;-68
2023/08/19 00:40:18;;;;;;;23.70;19.05;;;20.90;99.90;;;;;;5079584;28;20041;-68
2023/08/19 00:42:47;;;;;;;23.95;19.08;;;20.90;99.90;;;;;;5079220;28;20052;-68
2023/08/19 00:45:13;;;;;;;28.08;19.13;;;20.90;99.90;;;;;;5077708;28;20036;-67
2023/08/19 00:47:40;;;;;;;25.73;18.92;;;20.90;99.90;;;;;;5078457;28;20083;-67
2023/08/19 00:50:09;;;;;;;23.30;18.10;;;20.90;99.90;;;;;;5075678;28;20072;-67
2023/08/19 00:52:36;;;;;;;19.98;17.02;;;20.90;99.90;;;;;;5078568;28;20116;-68
2023/08/19 00:55:04;;;;;;;23.92;18.17;;;20.80;99.90;;;;;;5077552;28;20056;-68
2023/08/19 00:57:34;;;;;;;24.02;16.52;;;20.80;99.90;;;;;;5077916;28;20760;-68
2023/08/19 01:00:00;;;;;;;23.13;17.13;;;20.80;99.90;;;;;;5079540;28;20044;-67
2023/08/19 01:02:27;;;;;;;24.30;17.55;;;20.80;99.90;;;;;;5075737;28;20056;-68
2023/08/19 01:04:53;;;;;;;21.02;16.95;;;20.80;99.90;;;;;;5078169;28;20072;-67
2023/08/19 01:07:33;;;;;;;23.52;18.00;;;20.80;99.90;;;;;;5076866;28;20053;-68
2023/08/19 01:10:08;;;;;;;22.45;16.60;;;20.80;99.90;;;;;;5079384;28;20052;-68
2023/08/19 01:12:52;;;;;;;23.85;17.40;;;20.80;99.90;;;;;;5076928;28;20094;-66
2023/08/19 01:15:24;;;;;;;23.02;17.52;;;20.80;99.90;;;;;;5077160;28;20050;-68
2023/08/19 01:17:53;;;;;;;21.63;17.00;;;20.80;99.90;;;;;;5079420;28;20049;-68
2023/08/19 01:20:21;;;;;;;23.83;18.73;;;20.80;99.90;;;;;;5058363;28;20057;-67
2023/08/19 01:23:00;;;;;;;21.95;17.50;;;20.80;99.90;;;;;;5079318;28;20044;-67
2023/08/19 01:25:26;;;;;;;23.15;17.88;;;20.70;99.90;;;;;;5077979;28;20056;-67
2023/08/19 01:27:55;;;;;;;24.95;16.75;;;20.70;99.90;;;;;;5076436;28;20637;-68
2023/08/19 01:30:22;;;;;;;25.42;17.98;;;20.70;99.90;;;;;;5077779;28;20090;-67
2023/08/19 01:32:48;;;;;;;21.40;16.77;;;20.70;99.90;;;;;;5076590;28;20086;-67
2023/08/19 01:35:15;;;;;;;23.75;17.60;;;20.70;99.90;;;;;;5077984;28;20040;-67
2023/08/19 01:37:41;;;;;;;22.98;17.33;;;20.70;99.90;;;;;;5075250;28;20059;-67
2023/08/19 01:40:09;;;;;;;22.92;17.23;;;20.70;99.90;;;;;;5097066;28;20039;-68
2023/08/19 01:42:39;;;;;;;22.73;17.70;;;20.70;99.90;;;;;;5080505;28;20131;-67
2023/08/19 01:45:06;;;;;;;20.45;17.30;;;20.70;99.90;;;;;;5096543;28;20116;-67
2023/08/19 01:47:32;;;;;;;20.20;15.82;;;20.60;99.90;;;;;;5099091;28;20082;-67
2023/08/19 01:50:00;;;;;;;21.10;16.25;;;20.60;99.90;;;;;;5096996;28;20036;-68
2023/08/19 01:52:28;;;;;;;22.42;17.27;;;20.60;99.90;;;;;;5098127;28;20048;-68
2023/08/19 01:54:54;;;;;;;20.42;17.27;;;20.60;99.90;;;;;;5078778;28;20105;-68
2023/08/19 01:57:20;;;;;;;24.75;17.92;;;20.50;99.90;;;;;;5099191;28;20481;-68
2023/08/19 01:59:46;;;;;;;25.02;17.08;;;20.50;99.90;;;;;;5098501;28;20043;-67
2023/08/19 02:02:11;;;;;;;21.95;16.88;;;20.50;99.90;;;;;;5095978;28;20055;-67
2023/08/19 02:04:37;;;;;;;22.92;17.90;;;20.50;99.90;;;;;;5081270;28;20110;-67
2023/08/19 02:07:03;;;;;;;25.63;18.60;;;20.50;99.90;;;;;;5096592;28;20048;-67
2023/08/19 02:09:29;;;;;;;21.05;16.70;;;20.50;99.90;;;;;;5097789;28;20088;-67
2023/08/19 02:11:55;;;;;;;21.15;16.80;;;20.50;99.90;;;;;;5095356;28;20048;-67
2023/08/19 02:14:21;;;;;;;23.02;16.67;;;20.50;99.90;;;;;;5097762;28;20241;-67
2023/08/19 02:16:47;;;;;;;24.95;16.83;;;20.50;99.90;;;;;;5096268;28;20111;-68
2023/08/19 02:19:13;;;;;;;22.92;17.13;;;20.40;99.90;;;;;;5096684;28;20052;-67
2023/08/19 02:21:38;;;;;;;20.95;16.60;;;20.40;99.90;;;;;;5099186;28;20043;-67
2023/08/19 02:24:04;;;;;;;18.23;15.48;;;20.40;99.90;;;;;;5096504;28;20055;-68
2023/08/19 02:26:30;;;;;;;20.83;16.27;;;20.40;99.90;;;;;;5098846;28;20191;-68
2023/08/19 02:28:56;;;;;;;21.63;16.35;;;20.40;99.90;;;;;;5098269;28;20051;-67
2023/08/19 02:31:21;;;;;;;19.67;16.20;;;20.40;99.90;;;;;;5100967;28;20055;-68
2023/08/19 02:33:47;;;;;;;20.15;16.40;;;20.50;99.90;;;;;;5100967;28;20051;-68
2023/08/19 02:36:16;;;;;;;20.80;16.63;;;20.40;99.90;;;;;;5101498;28;20044;-68
2023/08/19 02:38:41;;;;;;;20.85;17.23;;;20.40;99.90;;;;;;5100972;28;20048;-67
2023/08/19 02:41:08;;;;;;;23.67;17.30;;;20.40;99.90;;;;;;5081504;28;20043;-68
2023/08/19 02:43:34;;;;;;;23.52;16.90;;;20.40;99.90;;;;;;5102138;28;20049;-67
2023/08/19 02:45:59;;;;;;;24.17;17.25;;;20.40;99.90;;;;;;5098197;28;20571;-67
2023/08/19 02:48:25;;;;;;;22.50;16.67;;;20.40;99.90;;;;;;5100921;28;20078;-68
2023/08/19 02:50:57;;;;;;;28.80;17.65;;;20.40;99.90;;;;;;5099046;28;20063;-68
2023/08/19 02:53:22;;;;;;;22.43;17.27;;;20.40;99.90;;;;;;5101123;28;20048;-67
2023/08/19 02:55:52;;;;;;;23.77;18.00;;;20.40;99.90;;;;;;5100757;28;20288;-67
2023/08/19 02:58:18;;;;;;;22.27;16.60;;;20.40;99.90;;;;;;5099369;28;20044;-68
2023/08/19 03:00:47;;;;;;;21.17;16.40;;;20.50;99.90;;;;;;5083458;28;20052;-68
2023/08/19 03:03:13;;;;;;;24.30;16.45;;;20.40;99.90;;;;;;5099576;28;20040;-68
2023/08/19 03:05:41;;;;;;;22.55;17.20;;;20.40;99.90;;;;;;5100430;28;20143;-68
2023/08/19 03:08:08;;;;;;;24.05;16.77;;;20.40;99.90;;;;;;5100502;28;20044;-67
2023/08/19 03:10:39;;;;;;;22.60;16.15;;;20.40;99.90;;;;;;5082402;28;20134;-68
2023/08/19 03:13:06;;;;;;;21.00;16.35;;;20.40;99.90;;;;;;5100631;28;20629;-68
2023/08/19 03:15:34;;;;;;;23.05;16.83;;;20.40;99.90;;;;;;5080877;28;20047;-68
2023/08/19 03:18:00;;;;;;;22.88;17.55;;;20.40;99.90;;;;;;5102099;28;20047;-68
2023/08/19 03:20:29;;;;;;;20.23;14.95;;;20.30;99.90;;;;;;5098175;28;20051;-67
2023/08/19 03:22:55;;;;;;;26.60;16.08;;;20.30;99.90;;;;;;5083505;28;20072;-68
2023/08/19 03:25:20;;;;;;;20.35;15.38;;;20.40;99.90;;;;;;5098795;28;20059;-68
2023/08/19 03:27:49;;;;;;;21.33;16.20;;;20.30;99.90;;;;;;5098757;28;20044;-68
2023/08/19 03:30:14;;;;;;;19.23;15.00;;;20.30;99.90;;;;;;5100196;28;20063;-67
2023/08/19 03:32:40;;;;;;;22.85;15.48;;;20.30;99.90;;;;;;5097620;28;20058;-67
2023/08/19 03:35:06;;;;;;;22.55;15.55;;;20.30;99.90;;;;;;5100093;28;20075;-67
2023/08/19 03:37:32;;;;;;;21.50;15.30;;;20.30;99.90;;;;;;5098704;28;20044;-68
2023/08/19 03:39:58;;;;;;;22.05;15.68;;;20.30;99.90;;;;;;5098628;28;20127;-68
2023/08/19 03:42:24;;;;;;;22.13;16.10;;;20.30;99.90;;;;;;5099966;28;20036;-67
2023/08/19 03:44:50;;;;;;;20.02;15.50;;;20.20;99.90;;;;;;5098369;28;20047;-67
2023/08/19 03:47:16;;;;;;;20.38;15.18;;;20.20;99.90;;;;;;5099891;28;20147;-67
2023/08/19 03:49:42;;;;;;;25.73;14.90;;;20.30;99.90;;;;;;5080458;28;20066;-67
2023/08/19 03:52:08;;;;;;;23.42;14.55;;;20.20;99.90;;;;;;5099451;28;20048;-68
2023/08/19 03:54:35;;;;;;;21.90;14.60;;;20.30;99.90;;;;;;5096825;28;20036;-67
2023/08/19 03:57:01;;;;;;;18.70;14.57;;;20.30;99.90;;;;;;5099595;28;20449;-69
2023/08/19 03:59:27;;;;;;;20.13;14.48;;;20.20;99.90;;;;;;5097359;28;20103;-68
2023/08/19 04:01:53;;;;;;;22.90;15.10;;;20.30;99.90;;;;;;5099709;28;20126;-67
2023/08/19 04:04:19;;;;;;;17.33;13.32;;;20.20;99.90;;;;;;5100591;28;20044;-68
2023/08/19 04:06:45;;;;;;;21.58;15.05;;;20.30;99.90;;;;;;5097656;28;20132;-69
2023/08/19 04:09:10;;;;;;;23.00;13.95;;;20.20;99.90;;;;;;5100498;28;20076;-68
2023/08/19 04:11:39;;;;;;;20.38;14.60;;;20.20;99.90;;;;;;5079600;28;20063;-68
2023/08/19 04:14:09;;;;;;;19.73;14.82;;;20.20;99.90;;;;;;5100313;28;20047;-69
2023/08/19 04:16:37;;;;;;;20.15;14.43;;;20.20;99.90;;;;;;5097254;28;20055;-68
2023/08/19 04:19:02;;;;;;;19.17;14.80;;;20.20;99.90;;;;;;5097923;28;20539;-68
2023/08/19 04:21:28;;;;;;;17.70;13.55;;;20.20;99.90;;;;;;5100063;28;20052;-68
2023/08/19 04:23:54;;;;;;;19.70;13.77;;;20.20;99.90;;;;;;5097412;28;20961;-68
2023/08/19 04:26:20;;;;;;;19.70;14.75;;;20.10;99.90;;;;;;5098308;28;20079;-68
2023/08/19 04:28:45;;;;;;;23.02;14.48;;;20.10;99.90;;;;;;5079074;28;20046;-69
2023/08/19 04:31:12;;;;;;;22.23;14.13;;;20.10;99.90;;;;;;5100345;28;20054;-67
2023/08/19 04:33:38;;;;;;;21.65;14.07;;;20.10;99.90;;;;;;5096893;28;20068;-67
2023/08/19 04:36:04;;;;;;;21.00;13.98;;;20.10;99.90;;;;;;5099285;28;20054;-69
2023/08/19 04:38:30;;;;;;;17.73;13.50;;;20.10;99.90;;;;;;5098460;28;20928;-68
2023/08/19 04:40:58;;;;;;;21.65;13.73;;;20.10;99.90;;;;;;5097542;28;20035;-68
2023/08/19 04:43:24;;;;;;;20.05;13.75;;;20.10;99.90;;;;;;5099525;28;20044;-67
2023/08/19 04:45:50;;;;;;;17.23;13.38;;;20.10;99.90;;;;;;5078888;28;20074;-68
2023/08/19 04:48:16;;;;;;;19.70;13.20;;;20.20;99.90;;;;;;5099708;28;20172;-68
2023/08/19 04:50:41;;;;;;;18.33;13.48;;;20.20;99.90;;;;;;5097515;28;20040;-68
2023/08/19 04:53:10;;;;;;;15.68;12.85;;;20.20;99.90;;;;;;5099125;28;20075;-68
2023/08/19 04:55:36;;;;;;;21.35;13.70;;;20.20;99.90;;;;;;5099452;28;20051;-68
2023/08/19 04:58:02;;;;;;;15.75;11.80;;;20.30;99.90;;;;;;5095811;28;20048;-68
2023/08/19 05:00:28;;;;;;;17.33;12.98;;;20.30;99.90;;;;;;5099808;28;20066;-67
2023/08/19 05:02:54;;;;;;;17.30;12.85;;;20.30;99.90;;;;;;5097031;28;20135;-68
2023/08/19 05:05:19;;;;;;;19.27;13.98;;;20.40;99.90;;;;;;5098234;28;20044;-68
2023/08/19 05:07:45;;;;;;;22.30;12.20;;;20.40;99.90;;;;;;5097149;28;20514;-67
2023/08/19 05:10:11;;;;;;;19.25;12.73;;;20.40;99.90;;;;;;5099128;28;20044;-67
2023/08/19 05:12:37;;;;;;;20.35;12.00;;;20.50;99.90;;;;;;5096657;28;20059;-68
2023/08/19 05:15:03;;;;;;;19.73;13.00;;;20.60;99.90;;;;;;5097513;28;20040;-68
2023/08/19 05:17:32;;;;;;;15.90;12.10;;;20.70;99.90;;;;;;5098200;28;20051;-67
2023/08/19 05:19:57;;;;;;;15.88;12.32;;;20.70;99.90;;;;;;5096824;28;20040;-68
2023/08/19 05:22:23;;;;;;;17.10;11.55;;;20.70;99.90;;;;;;5099344;28;20044;-67
2023/08/19 05:24:49;;;;;;;15.70;12.05;;;20.70;99.90;;;;;;5095398;28;20036;-67
2023/08/19 05:27:15;;;;;;;15.93;12.20;;;20.70;99.90;;;;;;5097543;28;20043;-67
2023/08/19 05:29:41;;;;;;;16.40;12.30;;;20.70;99.90;;;;;;5097173;28;20050;-67
2023/08/19 05:32:07;;;;;;;14.63;11.25;;;20.70;99.90;;;;;;5079385;28;20040;-67
2023/08/19 05:34:33;;;;;;;14.18;11.38;;;20.70;99.90;;;;;;5099219;28;20086;-68
2023/08/19 05:37:00;;;;;;;14.75;11.23;;;20.70;99.90;;;;;;5095307;28;20081;-68
2023/08/19 05:39:26;;;;;;;16.85;11.13;;;20.70;99.90;;;;;;5099060;28;20032;-67
2023/08/19 05:41:52;;;;;;;16.17;11.35;;;20.70;99.90;;;;;;5078698;28;20040;-68
2023/08/19 05:44:18;;;;;;;14.43;10.43;;;20.70;99.90;;;;;;5099204;28;20040;-68
2023/08/19 05:46:43;;;;;;;15.98;11.50;;;20.70;99.90;;;;;;5097014;28;20079;-69
2023/08/19 05:49:09;;;;;;;15.75;10.68;;;20.70;99.90;;;;;;5097788;28;20068;-68
2023/08/19 05:51:35;;;;;;;13.35;10.90;;;20.80;99.90;;;;;;5081224;28;20051;-68
2023/08/19 05:54:01;;;;;;;15.00;10.40;;;20.80;99.90;;;;;;5095309;28;20059;-68
2023/08/19 05:56:29;;;;;;;14.90;10.52;;;20.80;99.90;;;;;;5099370;28;20068;-68
2023/08/19 05:58:57;;;;;;;16.98;10.70;;;20.80;99.90;;;;;;5079160;28;20129;-69
2023/08/19 06:01:33;;;;;;;18.88;11.13;;;20.80;99.90;;;;;;5099506;28;20092;-67
2023/08/19 06:03:59;;;;;;;13.43;10.18;;;20.80;99.90;;;;;;5102217;28;20062;-68
2023/08/19 06:06:26;;;;;;;13.80;10.73;;;20.80;99.90;;;;;;5101442;28;20111;-67
2023/08/19 06:08:52;;;;;;;14.68;10.82;;;20.80;99.90;;;;;;5101781;28;20111;-68
2023/08/19 06:11:17;;;;;;;12.88;9.95;;;20.80;99.90;;;;;;5100821;28;20094;-68
2023/08/19 06:13:43;;;;;;;14.88;9.98;;;20.80;99.90;;;;;;5101857;28;20122;-69
2023/08/19 06:16:09;;;;;;;17.20;10.75;;;20.90;99.90;;;;;;5100511;28;20048;-68
2023/08/19 06:18:35;;;;;;;15.95;10.48;;;20.80;99.90;;;;;;5102958;28;20083;-69
2023/08/19 06:21:02;;;;;;;13.80;9.68;;;20.90;99.90;;;;;;5100653;28;20048;-69
2023/08/19 06:23:28;;;;;;;16.35;10.40;;;20.90;99.90;;;;;;5082679;28;20656;-71
2023/08/19 06:25:54;;;;;;;18.17;10.30;;;20.80;99.90;;;;;;5086695;28;20036;-70
2023/08/19 06:28:21;;;;;;;12.18;9.90;;;20.90;99.90;;;;;;5086052;28;20051;-71
2023/08/19 06:30:49;;;;;;;11.95;9.57;;;20.90;99.90;;;;;;5092345;28;20051;-70
2023/08/19 06:33:15;;;;;;;13.93;9.52;;;21.00;99.90;;;;;;5081698;28;20548;-70
2023/08/19 06:35:48;;;;;;;13.32;9.50;;;21.00;99.90;;;;;;5080672;28;20048;-71
2023/08/19 06:38:26;;;;;;;13.05;8.88;;;21.00;99.90;;;;;;5080804;28;20101;-70
2023/08/19 06:41:11;;;;;;;11.18;9.00;;;21.10;99.90;;;;;;5078480;28;20055;-71
2023/08/19 06:43:38;;;;;;;16.70;10.00;;;21.10;99.90;;;;;;5063680;28;20056;-69
2023/08/19 06:46:05;;;;;;;15.48;9.73;;;21.10;99.90;;;;;;5079880;28;20099;-70
2023/08/19 06:48:32;;;;;;;15.60;8.77;;;21.10;99.90;;;;;;5082309;28;20082;-69
2023/08/19 06:50:59;;;;;;;11.88;9.25;;;21.10;99.90;;;;;;5079773;28;20036;-69
2023/08/19 06:53:25;;;;;;;12.77;9.20;;;21.10;99.90;;;;;;5079384;28;20257;-69
2023/08/19 06:56:23;;;;;;;14.27;9.02;;;21.10;99.90;;;;;;5080813;28;20056;-69
2023/08/19 06:58:54;;;;;;;14.35;9.48;;;21.20;99.90;;;;;;5061335;28;20053;-69
2023/08/19 07:01:25;;;;;;;15.57;9.02;;;21.20;99.90;;;;;;5082025;28;20098;-70
2023/08/19 07:03:52;;;;;;;12.88;9.45;;;21.20;99.90;;;;;;5079382;28;20067;-69
2023/08/19 07:06:20;;;;;;;16.60;8.95;;;21.30;99.90;;;;;;5061227;28;20045;-69
2023/08/19 07:08:47;;;;;;;11.20;8.85;;;21.30;99.90;;;;;;5063403;28;20048;-70
2023/08/19 07:11:16;;;;;;;12.93;9.00;;;21.30;99.90;;;;;;5078852;28;20048;-69
2023/08/19 07:13:43;;;;;;;12.80;8.32;;;21.30;99.90;;;;;;5081000;28;20039;-68
2023/08/19 07:16:12;;;;;;;9.98;7.60;;;21.30;99.90;;;;;;5078607;28;20072;-69
2023/08/19 07:18:40;;;;;;;12.23;8.75;;;21.40;99.90;;;;;;5076961;28;20506;-69
2023/08/19 07:21:12;;;;;;;12.50;8.57;;;21.40;99.90;;;;;;5079988;28;20028;-69
2023/08/19 07:23:44;;;;;;;12.55;7.38;;;21.30;99.90;;;;;;5076718;28;20045;-69
2023/08/19 07:26:10;;;;;;;11.52;7.90;;;21.40;99.90;;;;;;5079206;28;20502;-69
2023/08/19 07:28:36;;;;;;;12.60;8.38;;;21.40;99.90;;;;;;5077410;28;20707;-70
2023/08/19 07:31:04;;;;;;;12.75;8.23;;;21.40;99.90;;;;;;5079816;28;20056;-69
2023/08/19 07:33:29;;;;;;;11.48;7.85;;;21.40;99.90;;;;;;5079107;28;20044;-69
2023/08/19 07:35:55;;;;;;;9.15;7.13;;;21.40;99.90;;;;;;5045579;28;20048;-69
2023/08/19 07:38:21;;;;;;;11.77;8.23;;;21.40;99.90;;;;;;5080721;28;20055;-69
2023/08/19 07:40:47;;;;;;;10.10;7.75;;;21.50;99.90;;;;;;5077573;28;20036;-69
2023/08/19 07:43:13;;;;;;;12.82;8.45;;;21.50;99.90;;;;;;5079708;28;20109;-68
2023/08/19 07:45:41;;;;;;;9.02;7.82;;;21.60;99.90;;;;;;5077058;28;20049;-69
2023/08/19 07:48:07;;;;;;;14.25;8.10;;;21.60;99.90;;;;;;5062647;28;20081;-69
2023/08/19 07:50:34;;;;;;;13.40;7.45;;;21.70;99.90;;;;;;5076319;28;20132;-69
2023/08/19 07:52:59;;;;;;;12.05;8.05;;;21.70;99.90;;;;;;5079052;28;20040;-69
2023/08/19 07:55:25;;;;;;;9.77;7.45;;;21.70;99.90;;;;;;5080200;28;20512;-69
2023/08/19 07:57:51;;;;;;;13.23;8.00;;;21.80;99.90;;;;;;5077409;28;20131;-69
2023/08/19 08:00:17;;;;;;;11.82;7.32;;;21.90;99.90;;;;;;5085830;28;20116;-69
2023/08/19 08:02:45;;;;;;;11.63;8.15;;;22.00;99.90;;;;;;5096739;28;20047;-70
2023/08/19 08:05:11;;;;;;;10.82;8.38;;;22.00;99.90;;;;;;5100663;28;20040;-69
2023/08/19 08:07:37;;;;;;;9.00;7.65;;;22.00;99.90;;;;;;5096791;28;20056;-69
2023/08/19 08:10:03;;;;;;;9.77;7.93;;;22.10;99.90;;;;;;5100635;28;20052;-69
2023/08/19 08:12:30;;;;;;;10.85;7.03;;;22.20;99.90;;;;;;5099900;28;20051;-69
2023/08/19 08:14:58;;;;;;;9.90;7.00;;;22.20;99.90;;;;;;5098990;28;20573;-72
2023/08/19 08:17:23;;;;;;;11.25;7.55;;;22.30;99.90;;;;;;5098544;28;20092;-68
2023/08/19 08:19:52;;;;;;;10.80;7.10;;;22.40;99.90;;;;;;5097921;28;20040;-69
2023/08/19 08:22:18;;;;;;;9.85;7.82;;;22.40;99.90;;;;;;5100583;28;20534;-69
2023/08/19 08:24:43;;;;;;;11.68;7.45;;;22.50;99.90;;;;;;5097592;28;20063;-71
2023/08/19 08:27:10;;;;;;;12.25;7.15;;;22.60;99.90;;;;;;5100240;28;20048;-69
2023/08/19 08:29:36;;;;;;;8.80;6.68;;;22.60;99.90;;;;;;5099836;28;20048;-69
2023/08/19 08:32:02;;;;;;;9.98;6.78;;;22.70;99.90;;;;;;5098782;28;20051;-70
2023/08/19 08:34:31;;;;;;;9.93;6.68;;;22.70;99.90;;;;;;5098896;28;20079;-70
2023/08/19 08:36:56;;;;;;;10.60;6.95;;;22.80;99.90;;;;;;5096483;28;20512;-70
2023/08/19 08:39:22;;;;;;;7.78;5.97;;;22.90;99.90;;;;;;5098962;28;20036;-71
2023/08/19 08:41:50;;;;;;;10.10;6.60;;;22.90;99.90;;;;;;5096337;28;20055;-71
2023/08/19 08:44:16;;;;;;;8.50;5.85;;;23.10;99.90;;;;;;5083625;28;20066;-70
2023/08/19 08:46:47;;;;;;;10.48;6.10;;;23.10;99.90;;;;;;5078890;28;20044;-70
2023/08/19 08:49:13;;;;;;;9.23;6.03;;;23.20;99.90;;;;;;5073595;28;20068;-69
2023/08/19 08:51:40;;;;;;;12.70;6.35;;;23.30;99.90;;;;;;5061390;28;20052;-70
2023/08/19 08:54:06;;;;;;;8.30;6.03;;;23.40;99.90;;;;;;5065410;28;20044;-69
2023/08/19 08:56:32;;;;;;;7.47;5.50;;;23.40;99.90;;;;;;5066649;28;20041;-70
2023/08/19 08:58:58;;;;;;;9.77;5.88;;;23.50;99.90;;;;;;5066779;28;20041;-70
2023/08/19 09:01:27;;;;;;;7.25;5.57;;;23.50;99.90;;;;;;5075192;28;20046;-70
2023/08/19 09:04:00;;;;;;;5.88;5.22;;;23.60;99.90;;;;;;5078416;28;20044;-70
2023/08/19 09:06:27;;;;;;;10.65;5.65;;;23.60;99.90;;;;;;5077308;28;20048;-70
2023/08/19 09:09:11;;;;;;;8.27;6.10;;;23.70;99.90;;;;;;5061230;28;20131;-70
2023/08/19 09:11:40;;;;;;;9.20;5.90;;;23.70;99.90;;;;;;5076723;28;20100;-70
2023/08/19 09:14:09;;;;;;;8.32;5.72;;;23.80;99.90;;;;;;5061151;28;20075;-71
2023/08/19 09:16:38;;;;;;;7.88;6.05;;;23.80;99.90;;;;;;5078038;28;20096;-70
2023/08/19 09:19:06;;;;;;;10.80;5.95;;;23.80;99.90;;;;;;5074259;28;20037;-72
2023/08/19 09:21:32;;;;;;;8.15;5.78;;;23.90;99.90;;;;;;5068937;28;20109;-70
2023/08/19 09:23:59;;;;;;;10.60;5.60;;;23.90;99.90;;;;;;5048459;28;20045;-70
2023/08/19 09:26:25;;;;;;;7.25;5.20;;;23.90;99.90;;;;;;5065655;28;20116;-70
2023/08/19 09:28:59;;;;;;;10.82;5.85;;;23.90;99.90;;;;;;5073633;28;20063;-71
2023/08/19 09:31:25;;;;;;;10.30;5.75;;;24.00;99.90;;;;;;5077348;28;20044;-70
2023/08/19 09:33:58;;;;;;;10.00;5.20;;;24.00;99.90;;;;;;5078126;28;20040;-70
2023/08/19 09:36:24;;;;;;;9.50;5.55;;;24.10;99.90;;;;;;5078119;28;20055;-70
2023/08/19 09:38:54;;;;;;;11.45;5.70;;;24.20;99.90;;;;;;5083189;28;20048;-70
2023/08/19 09:41:20;;;;;;;7.60;5.78;;;24.20;99.90;;;;;;5080660;28;20641;-72
2023/08/19 09:43:49;;;;;;;11.60;5.82;;;24.30;99.90;;;;;;5083010;28;20080;-71
2023/08/19 09:46:15;;;;;;;8.05;5.82;;;24.40;99.90;;;;;;5079378;28;20053;-69
2023/08/19 09:48:51;;;;;;;8.73;5.43;;;24.40;99.90;;;;;;5066591;28;20161;-66
2023/08/19 09:51:28;;;;;;;9.40;4.75;;;24.50;99.90;;;;;;5061548;28;20053;-65
2023/08/19 09:53:57;;;;;;;9.95;5.28;;;24.50;99.90;;;;;;5059029;28;20304;-65
2023/08/19 09:56:26;;;;;;;7.57;5.32;;;24.50;99.90;;;;;;5045589;28;20049;-63
2023/08/19 09:58:53;;;;;;;9.23;5.75;;;24.60;99.90;;;;;;5058893;28;20044;-63
2023/08/19 10:01:25;;;;;;;8.23;5.30;;;24.80;99.90;;;;;;5062612;28;20123;-64
2023/08/19 10:03:51;;;;;;;8.68;5.15;;;24.90;99.90;;;;;;5060476;28;20488;-63
2023/08/19 10:06:31;;;;;;;7.43;5.43;;;25.00;99.90;;;;;;5059422;28;20052;-63
2023/08/19 10:09:07;;;;;;;12.38;5.50;;;25.10;99.90;;;;;;5062596;28;20128;-63
2023/08/19 10:11:35;;;;;;;9.95;5.20;;;25.20;99.90;;;;;;5050374;28;20059;-63
2023/08/19 10:14:03;;;;;;;10.13;5.05;;;25.30;99.90;;;;;;5101624;28;20044;-64
2023/08/19 10:16:38;;;;;;;9.10;5.95;;;25.40;99.90;;;;;;5082857;28;20044;-64
2023/08/19 10:19:06;;;;;;;8.73;6.20;;;25.30;99.90;;;;;;5082953;28;20080;-64
2023/08/19 10:21:33;;;;;;;12.63;5.82;;;25.40;99.90;;;;;;5084658;28;20044;-63
2023/08/19 10:24:00;;;;;;;11.20;6.07;;;25.40;99.90;;;;;;5100154;28;20052;-65
2023/08/19 10:26:26;;;;;;;7.88;5.93;;;25.40;99.90;;;;;;5101202;28;20048;-63
2023/08/19 10:29:08;;;;;;;10.93;6.10;;;25.50;99.90;;;;;;5099935;28;20051;-64
2023/08/19 10:31:35;;;;;;;;;;;25.40;99.90;;;;;;5101018;28;20546;-63
2023/08/19 10:34:11;;;;;;;9.80;6.10;;;25.50;99.90;;;;;;5100665;28;19924;-64
2023/08/19 10:36:40;;;;;;;11.88;6.30;;;25.50;99.90;;;;;;5099947;28;20052;-63
2023/08/19 10:39:15;;;;;;;7.50;5.32;;;25.50;99.90;;;;;;5102407;28;20070;-64
2023/08/19 10:41:41;;;;;;;12.05;5.60;;;25.40;99.90;;;;;;5098386;28;20052;-64
2023/08/19 10:44:19;;;;;;;13.60;6.55;;;25.40;99.90;;;;;;5100601;28;20051;-67
2023/08/19 10:46:47;;;;;;;13.85;6.38;;;25.30;99.90;;;;;;5100326;28;20064;-67
2023/08/19 10:49:22;;;;;;;11.52;6.47;;;25.30;99.90;;;;;;5098208;28;20110;-63
2023/08/19 10:51:57;;;;;;;12.00;6.40;;;25.20;99.90;;;;;;5102144;28;20456;-64
2023/08/19 10:54:38;;;;;;;10.93;7.28;;;25.10;99.90;;;;;;5080513;28;20104;-63
2023/08/19 10:57:23;;;;;;;8.95;6.53;;;25.00;99.90;;;;;;5080309;28;20082;-64
2023/08/19 11:00:01;;;;;;;15.75;7.45;;;25.00;99.90;;;;;;5081518;28;20058;-64
2023/08/19 11:02:36;;;;;;;13.20;8.60;;;24.80;99.90;;;;;;5078052;28;20045;-64
2023/08/19 11:05:03;;;;;;;15.90;8.02;;;24.70;99.90;;;;;;5080471;28;20135;-64
2023/08/19 11:07:29;;;;;;;14.45;8.90;;;24.70;99.90;;;;;;5079138;28;20060;-64
2023/08/19 11:09:55;;;;;;;15.07;9.27;;;24.70;99.90;;;;;;5080540;28;20048;-64
2023/08/19 11:12:22;;;;;;;10.80;8.05;;;24.60;99.90;;;;;;5080622;28;20040;-64
2023/08/19 11:14:50;;;;;;;13.55;8.07;;;24.60;99.90;;;;;;5078669;28;20052;-64
2023/08/19 11:17:17;;;;;;;11.55;7.90;;;24.60;99.90;;;;;;5089503;28;20032;-64
2023/08/19 11:19:43;;;;;;;14.25;8.45;;;24.60;99.90;;;;;;5099601;28;20055;-64
2023/08/19 11:22:16;;;;;;;17.58;8.70;;;24.60;99.90;;;;;;5100461;28;20350;-64
2023/08/19 11:24:42;;;;;;;18.85;8.40;;;24.70;99.90;;;;;;5099519;28;20099;-65
2023/08/19 11:27:08;;;;;;;9.98;8.40;;;24.70;99.90;;;;;;5101452;28;20044;-65
2023/08/19 11:29:37;;;;;;;11.32;8.75;;;24.70;99.90;;;;;;5099628;28;20044;-65
2023/08/19 11:32:05;;;;;;;14.48;9.68;;;24.80;99.90;;;;;;5100125;28;20036;-65
2023/08/19 11:34:32;;;;;;;14.45;9.63;;;24.80;99.90;;;;;;5083915;28;20047;-65
2023/08/19 11:36:58;;;;;;;16.40;8.77;;;24.80;99.90;;;;;;5097737;28;20071;-64
2023/08/19 11:39:28;;;;;;;15.38;9.05;;;24.90;99.90;;;;;;5100357;28;20552;-65
2023/08/19 11:41:54;;;;;;;12.85;9.10;;;24.90;99.90;;;;;;5098047;28;20062;-65
2023/08/19 11:44:23;;;;;;;15.55;9.30;;;24.90;99.90;;;;;;5099874;28;20106;-64
2023/08/19 11:46:55;;;;;;;12.98;9.05;;;25.00;99.90;;;;;;5101134;28;20047;-66
2023/08/19 11:49:27;;;;;;;13.27;8.57;;;25.10;99.90;;;;;;5098131;28;20059;-66
2023/08/19 11:51:53;;;;;;;9.98;8.98;;;25.10;99.90;;;;;;5083305;28;20055;-65
2023/08/19 11:54:21;;;;;;;17.77;10.45;;;25.10;99.90;;;;;;5098824;28;20044;-64
2023/08/19 11:56:48;;;;;;;12.75;10.25;;;25.20;99.90;;;;;;5083118;28;20036;-65
2023/08/19 11:59:14;;;;;;;17.05;9.57;;;25.30;99.90;;;;;;5081007;28;20048;-64
2023/08/19 12:01:40;;;;;;;17.83;11.02;;;25.40;99.90;;;;;;5099744;28;20043;-65
2023/08/19 12:04:15;;;;;;;15.82;10.93;;;25.50;99.90;;;;;;5099556;28;20040;-65
2023/08/19 12:06:43;;;;;;;16.98;10.07;;;25.60;99.90;;;;;;5096963;28;20056;-65
2023/08/19 12:09:09;;;;;;;20.95;11.65;;;25.60;99.90;;;;;;5101172;28;20071;-64
2023/08/19 12:11:38;;;;;;;18.13;12.13;;;25.60;99.90;;;;;;5080176;28;20070;-65
2023/08/19 12:14:05;;;;;;;20.13;12.18;;;25.70;99.90;;;;;;5101045;28;20052;-64
2023/08/19 12:16:31;;;;;;;20.73;12.20;;;25.70;99.90;;;;;;5081494;28;20506;-64
2023/08/19 12:19:00;;;;;;;17.73;12.25;;;25.70;99.90;;;;;;5099506;28;20541;-64
2023/08/19 12:21:26;;;;;;;16.40;11.82;;;25.70;99.90;;;;;;5099485;28;20104;-65
2023/08/19 12:23:52;;;;;;;17.58;13.02;;;25.70;99.90;;;;;;5079760;28;20158;-64
2023/08/19 12:26:18;;;;;;;15.18;11.90;;;25.80;99.90;;;;;;5098693;28;20094;-65
2023/08/19 12:28:44;;;;;;;18.48;13.30;;;25.80;99.90;;;;;;5079210;28;20052;-65
2023/08/19 12:31:10;;;;;;;21.50;15.30;;;25.80;99.90;;;;;;5099108;28;20120;-64
2023/08/19 12:33:36;;;;;;;22.27;16.23;;;25.80;99.90;;;;;;5099046;28;20147;-65
2023/08/19 12:36:02;;;;;;;21.80;14.68;;;25.80;99.90;;;;;;5097738;28;20047;-65